Time;durP1;ratioP1;P1;durP2;ratioP2;P2;SDS_P1;SDS_P2;PMS_P1;PMS_P2;Temp;Humidity;BMP_temperature;BMP_pressure;BME280_temperature;BME280_humidity;BME280_pressure;Samples;Min_cycle;Max_cycle;Signal;HPM_P1;HPM_P2
2021/01/06 00:00:15;;;;;;;3.73;3.43;;;;;;;4.39;100.00;96567.53;6214880;23;20252;-87
2021/01/06 00:02:43;;;;;;;5.10;4.60;;;;;;;4.44;100.00;96575.03;6214920;23;20163;-87
2021/01/06 00:05:16;;;;;;;6.43;3.80;;;;;;;4.59;100.00;96576.47;6214998;23;20202;-88
2021/01/06 00:07:45;;;;;;;4.10;3.70;;;;;;;4.68;100.00;96580.19;6214976;23;20214;-88
2021/01/06 00:10:14;;;;;;;6.50;4.10;;;;;;;4.01;100.00;96576.34;6215140;23;20166;-88
2021/01/06 00:12:42;;;;;;;4.90;4.13;;;;;;;3.95;100.00;96579.41;6214977;23;20174;-87
2021/01/06 00:15:10;;;;;;;4.63;3.93;;;;;;;4.40;100.00;96584.81;6214163;23;20186;-87
2021/01/06 00:17:37;;;;;;;5.53;4.60;;;;;;;4.60;100.00;96596.34;6215166;23;20565;-87
2021/01/06 00:20:10;;;;;;;4.30;3.90;;;;;;;4.27;100.00;96595.28;6214945;23;20178;-87
2021/01/06 00:22:36;;;;;;;5.60;4.00;;;;;;;3.98;100.00;96589.59;6214976;23;20158;-88
2021/01/06 00:25:04;;;;;;;7.13;4.50;;;;;;;3.90;100.00;96596.28;6214829;23;20174;-87
2021/01/06 00:27:31;;;;;;;5.30;4.60;;;;;;;3.91;100.00;96598.75;6215042;23;20205;-87
2021/01/06 00:29:58;;;;;;;5.73;3.70;;;;;;;3.82;100.00;96602.03;6214966;23;20228;-88
2021/01/06 00:32:25;;;;;;;5.40;3.93;;;;;;;3.84;100.00;96594.09;6214816;23;20493;-88
2021/01/06 00:34:52;;;;;;;4.90;4.43;;;;;;;3.60;100.00;96601.88;6215013;23;20504;-88
2021/01/06 00:37:20;;;;;;;5.93;4.23;;;;;;;3.49;100.00;96610.41;6215121;23;20170;-88
2021/01/06 00:39:47;;;;;;;6.00;4.67;;;;;;;3.61;100.00;96601.78;6214852;23;20173;-88
2021/01/06 00:42:13;;;;;;;8.00;5.43;;;;;;;3.67;100.00;96613.50;6215048;23;20493;-87
2021/01/06 00:44:40;;;;;;;4.60;4.20;;;;;;;3.97;100.00;96620.91;6214771;23;20254;-88
2021/01/06 00:47:07;;;;;;;4.73;4.03;;;;;;;3.79;100.00;96623.88;6216138;23;20193;-87
2021/01/06 00:49:34;;;;;;;4.43;4.03;;;;;;;3.70;100.00;96621.06;6217738;23;20193;-88
2021/01/06 00:52:00;;;;;;;4.03;3.63;;;;;;;3.61;100.00;96624.34;6217008;23;20253;-88
2021/01/06 00:54:29;;;;;;;4.47;4.07;;;;;;;3.66;100.00;96623.06;6217111;23;20240;-88
2021/01/06 00:56:55;;;;;;;5.67;4.03;;;;;;;4.14;100.00;96622.31;6216578;23;20205;-88
2021/01/06 00:59:22;;;;;;;4.83;4.27;;;;;;;4.26;100.00;96622.25;6216524;23;20170;-87
2021/01/06 01:01:49;;;;;;;5.37;4.87;;;;;;;4.22;100.00;96628.59;6217056;23;20173;-88
2021/01/06 01:04:16;;;;;;;6.10;3.90;;;;;;;4.05;100.00;96626.38;6216612;23;20548;-87
2021/01/06 01:06:43;;;;;;;5.63;4.07;;;;;;;3.94;100.00;96629.75;6216420;23;20201;-88
2021/01/06 01:09:10;;;;;;;4.70;4.30;;;;;;;4.25;100.00;96637.97;6216635;23;20181;-88
2021/01/06 01:11:39;;;;;;;6.93;4.50;;;;;;;3.95;100.00;96643.56;6216928;23;20193;-87
2021/01/06 01:14:07;;;;;;;7.27;3.97;;;;;;;4.21;100.00;96644.34;6216505;23;20228;-88
2021/01/06 01:16:41;;;;;;;5.33;4.30;;;;;;;3.87;100.00;96645.91;6216558;23;20178;-87
2021/01/06 01:19:08;;;;;;;5.40;3.97;;;;;;;3.57;100.00;96640.16;6216586;23;20158;-87
2021/01/06 01:21:35;;;;;;;6.83;3.63;;;;;;;3.48;100.00;96638.16;6217086;23;20170;-88
2021/01/06 01:24:02;;;;;;;4.17;3.70;;;;;;;3.38;100.00;96633.72;6217104;23;20166;-88
2021/01/06 01:26:29;;;;;;;5.07;3.90;;;;;;;3.23;100.00;96622.63;6216426;23;20201;-88
2021/01/06 01:28:57;;;;;;;4.97;4.17;;;;;;;3.35;100.00;96629.56;6216678;23;20174;-88
2021/01/06 01:31:32;;;;;;;4.90;4.03;;;;;;;3.36;100.00;96613.06;6216534;23;20173;-87
2021/01/06 01:33:59;;;;;;;5.20;4.10;;;;;;;3.46;100.00;96621.84;6216469;23;20169;-88
2021/01/06 01:36:27;;;;;;;5.23;4.50;;;;;;;3.78;100.00;96617.03;6216429;23;20171;-88
2021/01/06 01:38:54;;;;;;;5.10;4.20;;;;;;;4.08;100.00;96622.75;6216166;23;20174;-88
2021/01/06 01:41:23;;;;;;;3.93;3.53;;;;;;;4.20;100.00;96634.88;6216654;23;20170;-88
2021/01/06 01:43:51;;;;;;;4.67;4.27;;;;;;;4.12;100.00;96635.44;6216585;23;20174;-87
2021/01/06 01:46:51;;;;;;;5.53;4.70;;;;;;;4.31;100.00;96642.72;6216254;23;20230;-87
2021/01/06 01:49:23;;;;;;;5.10;4.40;;;;;;;3.96;100.00;96640.06;6216183;23;20170;-87
2021/01/06 01:52:04;;;;;;;7.53;4.37;;;;;;;4.10;100.00;96641.69;6216618;23;20163;-87
2021/01/06 01:54:32;;;;;;;4.77;4.13;;;;;;;3.93;100.00;96640.28;6216472;23;20167;-87
2021/01/06 01:57:06;;;;;;;19.60;11.93;;;;;;;3.88;100.00;96642.34;6216347;23;20170;-87
2021/01/06 01:59:38;;;;;;;15.80;9.63;;;;;;;3.97;100.00;96642.53;6216137;23;20254;-87
2021/01/06 02:02:12;;;;;;;11.97;9.00;;;;;;;3.91;100.00;96636.94;6216324;23;20221;-87
2021/01/06 02:04:44;;;;;;;8.23;7.07;;;;;;;3.71;100.00;96639.19;6216198;23;20564;-87
2021/01/06 02:07:16;;;;;;;9.00;6.83;;;;;;;3.96;100.00;96640.06;6216284;23;20557;-87
2021/01/06 02:09:51;;;;;;;8.33;6.27;;;;;;;3.95;100.00;96631.44;6215774;23;20158;-88
2021/01/06 02:12:24;;;;;;;9.97;5.87;;;;;;;3.75;100.00;96638.03;6216330;23;20169;-87
2021/01/06 02:15:00;;;;;;;6.83;5.83;;;;;;;3.81;100.00;96636.78;6215854;23;20630;-87
2021/01/06 02:17:28;;;;;;;7.80;5.70;;;;;;;3.79;100.00;96643.84;6215959;23;20154;-87
2021/01/06 02:19:55;;;;;;;6.33;5.20;;;;;;;3.98;100.00;96632.97;6216147;23;20205;-87
2021/01/06 02:22:24;;;;;;;6.07;4.70;;;;;;;4.14;100.00;96633.53;6216286;23;20178;-87
2021/01/06 02:24:52;;;;;;;5.80;5.00;;;;;;;3.87;100.00;96625.91;6215963;23;20166;-87
2021/01/06 02:27:21;;;;;;;5.87;4.47;;;;;;;3.73;100.00;96626.06;6216254;23;20221;-88
2021/01/06 02:29:48;;;;;;;5.63;4.27;;;;;;;3.68;100.00;96631.59;6215888;23;20175;-87
2021/01/06 02:32:15;;;;;;;5.17;4.70;;;;;;;3.65;100.00;96621.41;6215812;23;20174;-87
2021/01/06 02:34:43;;;;;;;5.33;4.60;;;;;;;3.61;100.00;96632.13;6215738;23;20256;-87
2021/01/06 02:37:11;;;;;;;6.37;5.70;;;;;;;3.72;100.00;96617.44;6215819;23;20662;-88
2021/01/06 02:39:39;;;;;;;5.70;5.20;;;;;;;3.89;100.00;96624.06;6215699;23;20166;-87
2021/01/06 02:42:07;;;;;;;5.57;5.07;;;;;;;3.71;100.00;96620.16;6215875;23;20166;-88
2021/01/06 02:44:35;;;;;;;6.53;5.23;;;;;;;3.83;100.00;96624.47;6215536;23;20241;-88
2021/01/06 02:47:01;;;;;;;6.83;5.30;;;;;;;3.93;100.00;96625.50;6215936;23;20190;-88
2021/01/06 02:49:29;;;;;;;6.47;5.23;;;;;;;4.22;100.00;96613.00;6215890;23;20167;-87
2021/01/06 02:52:03;;;;;;;9.97;5.53;;;;;;;4.09;100.00;96622.66;6215910;23;20624;-87
2021/01/06 02:54:34;;;;;;;8.93;7.83;;;;;;;4.07;100.00;96621.91;6216186;23;20597;-87
2021/01/06 02:57:03;;;;;;;10.73;9.63;;;;;;;4.18;100.00;96614.16;6215910;23;20500;-87
2021/01/06 02:59:36;;;;;;;8.33;7.27;;;;;;;4.09;100.00;96606.19;6215667;23;20174;-87
2021/01/06 03:02:03;;;;;;;8.90;8.00;;;;;;;3.84;100.00;96599.31;6216268;23;20543;-87
2021/01/06 03:04:35;;;;;;;15.63;12.13;;;;;;;3.52;100.00;96600.63;6215589;23;20599;-87
2021/01/06 03:07:05;;;;;;;127.90;73.53;;;;;;;3.41;100.00;96621.34;6215641;23;20576;-87
2021/01/06 03:09:34;;;;;;;106.60;60.03;;;;;;;3.74;100.00;96625.13;6214860;23;20189;-87
2021/01/06 03:12:05;;;;;;;46.43;29.33;;;;;;;3.67;100.00;96629.09;6215346;23;20173;-87
2021/01/06 03:14:33;;;;;;;21.83;12.93;;;;;;;3.81;100.00;96626.38;6215744;23;20154;-87
2021/01/06 03:17:01;;;;;;;7.30;6.60;;;;;;;3.71;100.00;96623.59;6216344;23;20664;-87
2021/01/06 03:19:32;;;;;;;9.47;6.90;;;;;;;3.73;100.00;96623.47;6215085;23;20217;-87
2021/01/06 03:22:02;;;;;;;32.33;21.30;;;;;;;3.55;100.00;96630.78;6215285;23;20155;-87
2021/01/06 03:24:33;;;;;;;24.60;16.80;;;;;;;3.47;100.00;96638.28;6215357;23;20174;-87
2021/01/06 03:27:02;;;;;;;32.53;21.37;;;;;;;3.31;100.00;96634.13;6215188;23;20185;-87
2021/01/06 03:29:31;;;;;;;105.40;64.30;;;;;;;3.42;100.00;96642.97;6215710;23;20174;-87
2021/01/06 03:32:03;;;;;;;301.40;125.30;;;;;;;3.56;100.00;96637.63;6215705;23;20177;-88
2021/01/06 03:34:37;;;;;;;54.20;30.00;;;;;;;3.87;100.00;96638.94;6215505;23;20197;-88
2021/01/06 03:37:11;;;;;;;79.93;40.83;;;;;;;3.67;100.00;96647.28;6215235;23;20212;-88
2021/01/06 03:39:45;;;;;;;161.07;79.40;;;;;;;3.68;100.00;96648.97;6215209;23;20162;-88
2021/01/06 03:42:14;;;;;;;17.57;13.63;;;;;;;3.70;100.00;96657.47;6215246;23;20170;-88
2021/01/06 03:44:42;;;;;;;9.50;6.33;;;;;;;3.70;100.00;96644.47;6215213;23;20166;-88
2021/01/06 03:47:19;;;;;;;35.73;18.70;;;;;;;3.80;100.00;96642.91;6215479;23;20201;-88
2021/01/06 03:49:54;;;;;;;14.00;9.80;;;;;;;4.11;100.00;96638.94;6215050;23;20155;-88
2021/01/06 03:52:34;;;;;;;8.70;6.97;;;;;;;4.29;100.00;96639.41;6215212;23;20192;-88
2021/01/06 03:55:06;;;;;;;45.70;26.20;;;;;;;4.32;100.00;96638.34;6215096;23;20678;-88
2021/01/06 03:57:35;;;;;;;55.87;32.63;;;;;;;4.36;100.00;96645.81;6215028;23;20205;-88
2021/01/06 04:00:03;;;;;;;37.50;21.57;;;;;;;4.09;100.00;96648.66;6215366;23;20297;-87
2021/01/06 04:02:40;;;;;;;14.20;11.83;;;;;;;3.32;100.00;96647.94;6215689;23;20193;-87
2021/01/06 04:05:10;;;;;;;13.57;10.60;;;;;;;3.40;100.00;96645.69;6215003;23;20206;-88
2021/01/06 04:07:43;;;;;;;14.97;10.17;;;;;;;3.44;100.00;96644.53;6214898;23;20178;-87
2021/01/06 04:10:14;;;;;;;15.27;12.17;;;;;;;3.56;100.00;96642.84;6215069;23;20628;-87
2021/01/06 04:12:42;;;;;;;12.57;9.60;;;;;;;3.66;100.00;96641.25;6214915;23;20169;-87
2021/01/06 04:15:11;;;;;;;7.87;6.90;;;;;;;3.83;100.00;96644.47;6214896;23;20232;-88
2021/01/06 04:17:40;;;;;;;7.47;6.60;;;;;;;3.91;100.00;96653.38;6214743;23;20188;-88
2021/01/06 04:20:21;;;;;;;12.40;7.80;;;;;;;3.93;100.00;96663.69;6215246;23;20198;-88
2021/01/06 04:22:49;;;;;;;7.73;6.30;;;;;;;4.10;100.00;96654.69;6215341;23;20155;-88
2021/01/06 04:25:23;;;;;;;18.57;13.40;;;;;;;3.92;100.00;96649.84;6214894;23;20640;-87
2021/01/06 04:27:53;;;;;;;22.30;17.40;;;;;;;3.67;100.00;96642.09;6214682;23;20178;-87
2021/01/06 04:30:25;;;;;;;16.37;11.40;;;;;;;3.61;100.00;96638.16;6215340;23;20177;-88
2021/01/06 04:33:13;;;;;;;;;;;;;;;;;;;;;
2021/01/06 04:35:40;;;;;;;18.53;11.30;;;;;;;3.87;100.00;96627.69;6215314;23;20205;-87
2021/01/06 04:38:07;;;;;;;14.83;8.50;;;;;;;3.96;100.00;96640.06;6213726;23;20174;-88
2021/01/06 04:40:38;;;;;;;22.37;16.93;;;;;;;3.90;100.00;96636.13;6213933;23;20170;-88
2021/01/06 04:43:16;;;;;;;27.53;19.83;;;;;;;3.65;100.00;96641.38;6213980;23;20163;-88
2021/01/06 04:45:52;;;;;;;22.30;17.43;;;;;;;3.47;100.00;96644.31;6214763;23;20229;-89
2021/01/06 04:48:49;;;;;;;13.20;11.33;;;;;;;3.33;100.00;96639.25;6214310;23;20185;-88
2021/01/06 04:51:26;;;;;;;14.60;11.60;;;;;;;3.37;100.00;96642.47;6204855;23;20178;-88
2021/01/06 04:54:06;;;;;;;14.70;8.57;;;;;;;3.57;100.00;96644.50;6213977;23;20228;-87
2021/01/06 04:57:04;;;;;;;12.30;9.53;;;;;;;3.41;100.00;96643.91;6214520;23;20159;-87
2021/01/06 04:59:52;;;;;;;31.63;19.37;;;;;;;3.70;100.00;96654.88;6085484;23;20236;-89
2021/01/06 05:02:28;;;;;;;22.40;13.10;;;;;;;3.61;100.00;96665.94;6213812;23;20173;-88
2021/01/06 05:05:35;;;;;;;21.10;16.53;;;;;;;3.36;100.00;96659.81;6214663;23;20197;-89
2021/01/06 05:08:12;;;;;;;16.00;12.67;;;;;;;3.42;100.00;96656.78;6213616;23;20398;-90
2021/01/06 05:10:43;;;;;;;17.93;11.47;;;;;;;3.45;100.00;96660.94;6213908;23;20169;-88
2021/01/06 05:13:20;;;;;;;23.87;17.67;;;;;;;3.28;100.00;96652.53;6213380;23;20162;-89
2021/01/06 05:15:53;;;;;;;21.17;12.93;;;;;;;3.65;100.00;96641.38;6213683;23;20257;-86
2021/01/06 05:18:20;;;;;;;12.87;11.27;;;;;;;3.54;100.00;96653.34;6213855;23;20233;-88
2021/01/06 05:20:47;;;;;;;21.03;14.97;;;;;;;3.55;100.00;96657.59;6213377;23;20206;-86
2021/01/06 05:23:20;;;;;;;16.83;13.90;;;;;;;3.36;100.00;96646.81;6214730;23;20170;-86
2021/01/06 05:25:48;;;;;;;24.60;20.50;;;;;;;3.49;100.00;96652.00;6214184;23;20170;-87
2021/01/06 05:28:17;;;;;;;26.63;20.80;;;;;;;3.41;100.00;96659.50;6214654;23;20766;-89
2021/01/06 05:30:44;;;;;;;37.07;26.03;;;;;;;3.40;100.00;96653.47;6214122;23;20170;-86
2021/01/06 05:33:17;;;;;;;24.43;18.17;;;;;;;3.39;100.00;96658.75;6214609;23;20760;-90
2021/01/06 05:35:47;;;;;;;15.53;13.43;;;;;;;3.31;100.00;96659.28;6216611;23;20502;-88
2021/01/06 05:38:14;;;;;;;27.90;23.30;;;;;;;3.46;100.00;96663.41;6216060;23;20226;-87
2021/01/06 05:40:43;;;;;;;24.13;20.60;;;;;;;3.35;100.00;96665.94;6216076;23;20175;-87
2021/01/06 05:43:23;;;;;;;19.57;15.33;;;;;;;3.56;100.00;96674.03;6215986;23;20198;-88
2021/01/06 05:45:53;;;;;;;15.47;13.67;;;;;;;3.52;100.00;96667.38;6216471;23;20507;-87
2021/01/06 05:48:23;;;;;;;15.00;12.37;;;;;;;3.58;100.00;96657.41;6216510;23;20190;-88
2021/01/06 05:51:02;;;;;;;14.33;12.07;;;;;;;3.69;100.00;96658.41;6216157;23;20174;-88
2021/01/06 05:53:44;;;;;;;34.23;27.97;;;;;;;3.73;100.00;96665.88;6216508;23;20158;-87
2021/01/06 05:56:36;;;;;;;34.77;27.50;;;;;;;3.55;100.00;96667.16;6216477;23;20163;-87
2021/01/06 05:59:37;;;;;;;26.93;21.27;;;;;;;3.57;100.00;96673.94;6215986;23;20245;-87
2021/01/06 06:02:24;;;;;;;23.90;18.47;;;;;;;3.79;100.00;96670.66;6193090;23;20174;-87
2021/01/06 06:05:13;;;;;;;20.00;17.07;;;;;;;3.69;100.00;96682.63;6215414;23;20202;-87
2021/01/06 06:07:57;;;;;;;12.07;10.13;;;;;;;3.49;100.00;96689.19;6215742;23;20193;-87
2021/01/06 06:10:47;;;;;;;12.40;9.57;;;;;;;3.46;100.00;96705.00;6215776;23;20158;-87
2021/01/06 06:13:49;;;;;;;10.23;8.83;;;;;;;3.56;100.00;96710.41;6215622;23;20170;-87
2021/01/06 06:16:36;;;;;;;14.40;10.20;;;;;;;3.60;100.00;96706.66;6215636;23;20162;-88
2021/01/06 06:19:18;;;;;;;11.03;9.83;;;;;;;3.74;100.00;96697.91;6215774;23;20167;-88
2021/01/06 06:22:00;;;;;;;47.17;31.97;;;;;;;3.79;100.00;96712.28;6216207;23;20181;-87
2021/01/06 06:24:42;;;;;;;52.07;36.57;;;;;;;3.48;100.00;96697.94;6215761;23;20489;-87
2021/01/06 06:27:38;;;;;;;32.93;24.47;;;;;;;3.38;100.00;96701.28;6216027;23;20277;-87
2021/01/06 06:30:31;;;;;;;26.40;18.73;;;;;;;3.71;100.00;96705.94;6203560;23;20174;-87
2021/01/06 06:32:59;;;;;;;18.60;11.47;;;;;;;3.93;100.00;96702.69;6210705;23;20181;-87
2021/01/06 06:35:31;;;;;;;53.50;28.90;;;;;;;4.16;100.00;96719.28;6215444;23;20252;-87
2021/01/06 06:38:01;;;;;;;27.70;20.03;;;;;;;4.22;100.00;96708.44;6215680;23;20626;-87
2021/01/06 06:40:51;;;;;;;36.50;22.73;;;;;;;4.20;100.00;96734.56;6215405;23;20666;-87
2021/01/06 06:43:28;;;;;;;53.30;35.10;;;;;;;3.89;100.00;96733.28;6215829;23;20159;-87
2021/01/06 06:46:27;;;;;;;38.57;30.10;;;;;;;3.86;100.00;96725.69;6215796;23;20162;-87
2021/01/06 06:49:14;;;;;;;28.37;19.20;;;;;;;3.92;100.00;96727.88;6215912;23;20154;-87
2021/01/06 06:51:49;;;;;;;25.80;17.37;;;;;;;4.04;100.00;96727.00;6215449;23;20162;-87
2021/01/06 06:54:23;;;;;;;18.17;15.10;;;;;;;4.20;100.00;96733.75;6215403;23;20166;-87
2021/01/06 06:56:56;;;;;;;22.60;15.47;;;;;;;4.02;100.00;96736.69;6215807;23;20158;-87
2021/01/06 06:59:27;;;;;;;19.10;16.63;;;;;;;4.08;100.00;96745.00;6215430;23;20220;-87
2021/01/06 07:02:00;;;;;;;20.27;17.03;;;;;;;4.33;100.00;96741.50;6215440;23;20158;-87
2021/01/06 07:04:38;;;;;;;49.70;31.53;;;;;;;4.31;100.00;96732.97;6215468;23;20275;-87
2021/01/06 07:07:06;;;;;;;34.60;24.63;;;;;;;4.26;100.00;96746.28;6214994;23;20210;-88
2021/01/06 07:09:37;;;;;;;31.60;24.53;;;;;;;4.01;100.00;96741.97;6215328;23;20166;-87
2021/01/06 07:12:07;;;;;;;67.97;43.80;;;;;;;4.00;100.00;96746.34;6215218;23;20190;-88
2021/01/06 07:14:37;;;;;;;91.93;61.03;;;;;;;4.02;100.00;96736.69;6215527;23;20170;-87
2021/01/06 07:17:09;;;;;;;67.63;47.93;;;;;;;4.17;100.00;96732.19;6215453;23;20600;-88
2021/01/06 07:19:39;;;;;;;45.40;34.00;;;;;;;4.15;100.00;96728.00;6215292;23;20197;-88
2021/01/06 07:22:21;;;;;;;36.00;30.50;;;;;;;4.27;100.00;96740.19;6215162;23;20174;-88
2021/01/06 07:24:54;;;;;;;34.33;27.27;;;;;;;4.41;100.00;96732.22;6215171;23;20698;-88
2021/01/06 07:27:21;;;;;;;28.73;22.20;;;;;;;4.32;100.00;96732.88;6215153;23;20178;-88
2021/01/06 07:29:51;;;;;;;39.33;27.07;;;;;;;4.46;100.00;96719.69;6215064;23;20177;-88
2021/01/06 07:32:19;;;;;;;15.90;12.47;;;;;;;4.61;100.00;96724.78;6215202;23;20170;-88
2021/01/06 07:34:50;;;;;;;18.87;16.60;;;;;;;4.41;100.00;96734.00;6215268;23;20210;-88
2021/01/06 07:37:30;;;;;;;21.80;18.00;;;;;;;4.49;100.00;96737.69;6215052;23;20212;-87
2021/01/06 07:40:00;;;;;;;22.20;17.60;;;;;;;4.39;100.00;96730.66;6215200;23;20158;-88
2021/01/06 07:42:38;;;;;;;18.07;15.73;;;;;;;4.46;100.00;96737.09;6215334;23;20181;-87
2021/01/06 07:45:26;;;;;;;22.70;19.37;;;;;;;4.49;100.00;96732.50;6214954;23;20204;-88
2021/01/06 07:48:02;;;;;;;23.40;20.00;;;;;;;4.47;100.00;96743.97;6214915;23;20183;-88
2021/01/06 07:50:33;;;;;;;28.17;21.97;;;;;;;4.69;100.00;96748.47;6215781;23;20162;-88
2021/01/06 07:53:06;;;;;;;25.87;21.33;;;;;;;4.62;100.00;96747.25;6215033;23;20224;-88
2021/01/06 07:55:39;;;;;;;23.33;20.70;;;;;;;4.53;100.00;96759.97;6214627;23;20162;-88
2021/01/06 07:58:10;;;;;;;35.27;27.03;;;;;;;4.24;100.00;96762.03;6214793;23;20158;-87
2021/01/06 08:00:41;;;;;;;33.63;26.07;;;;;;;4.16;100.00;96759.16;6215298;23;20163;-87
2021/01/06 08:03:21;;;;;;;28.07;17.73;;;;;;;4.12;100.00;96764.66;6214661;23;20163;-88
2021/01/06 08:05:56;;;;;;;21.50;15.80;;;;;;;4.48;100.00;96769.06;6214911;23;20170;-87
2021/01/06 08:08:25;;;;;;;24.17;19.50;;;;;;;4.80;100.00;96766.75;6214827;23;20189;-88
2021/01/06 08:11:05;;;;;;;21.80;15.73;;;;;;;4.76;100.00;96766.13;6215231;23;20632;-88
2021/01/06 08:13:34;;;;;;;25.53;22.63;;;;;;;5.04;100.00;96771.94;6214709;23;20239;-88
2021/01/06 08:16:16;;;;;;;48.57;34.40;;;;;;;5.32;100.00;96773.34;6215081;23;20540;-88
2021/01/06 08:19:00;;;;;;;34.40;27.77;;;;;;;5.19;100.00;96781.25;6214986;23;20627;-88
2021/01/06 08:21:31;;;;;;;33.30;26.53;;;;;;;4.83;100.00;96773.50;6214903;23;20600;-88
2021/01/06 08:24:20;;;;;;;40.47;31.07;;;;;;;5.03;100.00;96777.28;6215141;23;20504;-88
2021/01/06 08:26:50;;;;;;;43.13;30.87;;;;;;;4.93;100.00;96769.31;6195815;23;20208;-87
2021/01/06 08:29:19;;;;;;;46.50;33.87;;;;;;;5.09;100.00;96755.97;6214750;23;20166;-88
2021/01/06 08:31:48;;;;;;;99.40;67.67;;;;;;;5.28;100.00;96756.28;6214959;23;20181;-88
2021/01/06 08:34:27;;;;;;;53.63;41.77;;;;;;;5.35;100.00;96765.31;6214443;23;20177;-88
2021/01/06 08:36:57;;;;;;;33.50;25.40;;;;;;;5.29;100.00;96770.97;6214955;23;20162;-88
2021/01/06 08:39:25;;;;;;;29.57;22.80;;;;;;;5.35;100.00;96767.09;6215068;23;20166;-88
2021/01/06 08:41:56;;;;;;;27.37;18.93;;;;;;;5.23;100.00;96761.03;6214654;23;20652;-88
2021/01/06 08:44:34;;;;;;;25.90;19.20;;;;;;;5.27;100.00;96759.84;6214828;23;20158;-88
2021/01/06 08:47:04;;;;;;;25.60;21.33;;;;;;;5.52;100.00;96764.06;6214539;23;20189;-88
2021/01/06 08:49:33;;;;;;;20.33;16.03;;;;;;;5.71;100.00;96774.78;6214757;23;20169;-87
2021/01/06 08:52:18;;;;;;;17.93;12.37;;;;;;;5.63;100.00;96771.91;6214970;23;20174;-88
2021/01/06 08:54:57;;;;;;;12.80;10.00;;;;;;;5.85;100.00;96765.88;6214703;23;20216;-88
2021/01/06 08:57:30;;;;;;;11.67;10.33;;;;;;;6.06;100.00;96758.22;6215153;23;20162;-88
2021/01/06 08:59:56;;;;;;;10.20;8.17;;;;;;;6.40;100.00;96750.34;6214211;23;20163;-88
2021/01/06 09:02:33;;;;;;;9.47;7.80;;;;;;;6.62;100.00;96757.34;6214520;23;20228;-88
2021/01/06 09:05:00;;;;;;;11.20;8.17;;;;;;;6.55;100.00;96758.78;6214739;23;20206;-88
2021/01/06 09:07:30;;;;;;;8.83;7.17;;;;;;;6.52;100.00;96762.47;6214710;23;20201;-88
2021/01/06 09:10:32;;;;;;;9.43;7.90;;;;;;;6.71;100.00;96743.53;6216901;23;20162;-88
2021/01/06 09:13:07;;;;;;;14.37;8.00;;;;;;;6.91;100.00;96734.91;6191812;23;20170;-88
2021/01/06 09:15:42;;;;;;;15.30;12.83;;;;;;;7.12;100.00;96732.34;6216953;23;20244;-88
2021/01/06 09:18:18;;;;;;;12.83;11.43;;;;;;;6.94;100.00;96728.63;6216669;23;20158;-88
2021/01/06 09:21:01;;;;;;;15.40;12.70;;;;;;;7.16;100.00;96725.06;6216353;23;20171;-88
2021/01/06 09:23:29;;;;;;;18.47;11.90;;;;;;;7.24;100.00;96719.19;6216795;23;20158;-88
2021/01/06 09:25:58;;;;;;;17.63;13.43;;;;;;;7.25;100.00;96719.09;6216630;23;20257;-88
2021/01/06 09:28:28;;;;;;;13.33;11.77;;;;;;;7.43;100.00;96715.91;6216540;23;20202;-88
2021/01/06 09:30:55;;;;;;;18.90;14.83;;;;;;;7.27;100.00;96714.56;6216585;23;20174;-88
2021/01/06 09:33:26;;;;;;;19.43;14.70;;;;;;;7.29;100.00;96712.66;6216635;23;20173;-88
2021/01/06 09:35:54;;;;;;;23.20;19.63;;;;;;;7.55;100.00;96701.78;6216698;23;20158;-88
2021/01/06 09:38:30;;;;;;;22.83;17.93;;;;;;;7.74;100.00;96696.66;6216095;23;20186;-88
2021/01/06 09:41:01;;;;;;;21.13;16.80;;;;;;;7.71;100.00;96702.16;6216447;23;20154;-88
2021/01/06 09:43:37;;;;;;;18.80;14.60;;;;;;;7.68;100.00;96707.66;6216075;23;20266;-87
2021/01/06 09:46:14;;;;;;;15.43;13.00;;;;;;;7.81;100.00;96704.81;6216358;23;20162;-88
2021/01/06 09:48:45;;;;;;;13.53;11.00;;;;;;;8.21;100.00;96698.75;6216527;23;20177;-88
2021/01/06 09:51:13;;;;;;;35.83;21.67;;;;;;;8.15;100.00;96694.09;6216276;23;20159;-88
2021/01/06 09:53:41;;;;;;;12.17;8.60;;;;;;;8.05;100.00;96699.28;6216300;23;20174;-88
2021/01/06 09:56:15;;;;;;;7.80;6.33;;;;;;;8.22;100.00;96705.69;6216014;23;20205;-88
2021/01/06 09:58:43;;;;;;;8.00;6.47;;;;;;;8.91;100.00;96702.25;6216437;23;20533;-88
2021/01/06 10:01:27;;;;;;;9.07;7.60;;;;;;;9.37;100.00;96698.06;6216111;23;20202;-88
2021/01/06 10:03:55;;;;;;;7.77;6.70;;;;;;;9.91;100.00;96701.81;6215720;23;20201;-88
2021/01/06 10:06:45;;;;;;;8.70;6.27;;;;;;;10.02;100.00;96699.00;6215886;23;20223;-88
2021/01/06 10:09:30;;;;;;;7.90;6.17;;;;;;;10.76;100.00;96678.84;6215883;23;20163;-88
2021/01/06 10:12:27;;;;;;;9.00;6.87;;;;;;;10.54;100.00;96677.47;6214357;23;20213;-88
2021/01/06 10:15:22;;;;;;;8.47;6.13;;;;;;;11.01;100.00;96675.44;6216029;23;20162;-88
2021/01/06 10:18:01;;;;;;;9.70;6.27;;;;;;;11.70;100.00;96673.81;6215815;23;20165;-88
2021/01/06 10:20:35;;;;;;;7.70;6.50;;;;;;;11.58;100.00;96675.06;6215835;23;20169;-87
2021/01/06 10:23:16;;;;;;;6.70;6.00;;;;;;;11.79;100.00;96679.97;6215996;23;20241;-87
2021/01/06 10:25:47;;;;;;;7.47;5.37;;;;;;;11.71;100.00;96672.84;6215892;23;20236;-88
2021/01/06 10:28:32;;;;;;;10.30;5.43;;;;;;;12.51;100.00;96670.75;6215647;23;20265;-87
2021/01/06 10:31:04;;;;;;;6.53;5.93;;;;;;;12.65;100.00;96653.50;6216156;23;20237;-88
2021/01/06 10:33:32;;;;;;;6.50;5.00;;;;;;;12.81;100.00;96650.03;6216225;23;20491;-87
2021/01/06 10:36:20;;;;;;;6.47;3.97;;;;;;;13.08;100.00;96647.09;6215418;23;20233;-88
2021/01/06 10:38:53;;;;;;;6.20;5.20;;;;;;;13.25;100.00;96639.22;6215902;23;20154;-88
2021/01/06 10:41:30;;;;;;;7.57;5.67;;;;;;;13.49;100.00;96638.34;6215628;23;20176;-87
2021/01/06 10:43:57;;;;;;;5.20;4.70;;;;;;;13.73;100.00;96640.13;6215548;23;20288;-88
2021/01/06 10:46:53;;;;;;;4.63;4.00;;;;;;;13.39;100.00;96630.59;6216081;23;20643;-87
2021/01/06 10:49:54;;;;;;;5.10;3.83;;;;;;;13.61;100.00;96630.91;6215482;23;20247;-87
2021/01/06 10:52:29;;;;;;;3.23;3.00;;;;;;;14.35;100.00;96618.25;6215347;23;20658;-86
2021/01/06 10:55:17;;;;;;;4.20;3.20;;;;;;;13.38;100.00;96621.06;6215213;23;20628;-87
2021/01/06 10:57:49;;;;;;;16.33;10.87;;;;;;;13.44;100.00;96614.25;6215179;23;20616;-87
2021/01/06 11:00:20;;;;;;;15.00;9.57;;;;;;;13.24;100.00;96606.72;6215191;23;20158;-87
2021/01/06 11:03:32;;;;;;;21.50;11.97;;;;;;;13.47;100.00;96601.56;6215497;23;20163;-87
2021/01/06 11:06:33;;;;;;;4.13;2.70;;;;;;;12.73;100.00;96598.09;6123524;23;20219;-87
2021/01/06 11:09:26;;;;;;;4.30;3.10;;;;;;;13.16;100.00;96600.56;6094444;23;20216;-87
2021/01/06 11:12:37;;;;;;;24.97;16.07;;;;;;;13.68;100.00;96605.44;6094499;23;20217;-87
2021/01/06 11:15:22;;;;;;;11.73;8.10;;;;;;;13.02;100.00;96599.41;6008672;23;20226;-87
2021/01/06 11:18:17;;;;;;;34.77;24.53;;;;;;;12.94;100.00;96602.06;6085135;23;20173;-87
2021/01/06 11:20:48;;;;;;;24.53;19.50;;;;;;;13.21;100.00;96604.38;6094268;23;20186;-87
2021/01/06 11:23:40;;;;;;;26.43;20.23;;;;;;;12.34;100.00;96595.25;6094131;23;20173;-87
2021/01/06 11:26:51;;;;;;;21.50;17.57;;;;;;;12.73;100.00;96595.47;6094189;23;20179;-87
2021/01/06 11:29:47;;;;;;;16.67;13.67;;;;;;;12.55;100.00;96598.25;6094061;23;20165;-87
2021/01/06 11:32:34;;;;;;;17.10;15.30;;;;;;;12.43;100.00;96598.72;6093653;23;20237;-87
2021/01/06 11:35:24;;;;;;;17.90;16.13;;;;;;;12.35;100.00;96600.34;6094333;23;20172;-87
2021/01/06 11:37:51;;;;;;;25.77;21.63;;;;;;;12.72;100.00;96599.09;6093978;23;20158;-87
2021/01/06 11:40:48;;;;;;;11.73;9.43;;;;;;;12.81;100.00;96600.75;6179249;23;20249;-86
2021/01/06 11:43:36;;;;;;;5.80;5.23;;;;;;;12.92;100.00;96602.25;6215379;23;20170;-87
2021/01/06 11:46:47;;;;;;;5.07;4.37;;;;;;;12.67;100.00;96604.03;6214745;23;20228;-87
2021/01/06 11:49:24;;;;;;;5.20;4.70;;;;;;;12.48;100.00;96599.06;6215234;23;20666;-87
2021/01/06 11:52:32;;;;;;;6.17;4.23;;;;;;;12.45;100.00;96607.31;6214637;23;20162;-87
2021/01/06 11:55:09;;;;;;;7.97;4.33;;;;;;;12.75;100.00;96598.78;6214616;23;20241;-87
2021/01/06 11:57:45;;;;;;;4.20;3.37;;;;;;;11.91;100.00;96605.00;6214543;23;20219;-87
2021/01/06 12:00:26;;;;;;;7.97;6.37;;;;;;;11.96;100.00;96608.00;6214970;23;20488;-86